createdAt,value
2023-02-11T00:01:28.509Z,99578.91
2023-02-11T00:03:58.096Z,99579.00
2023-02-11T00:06:30.153Z,99568.66
2023-02-11T00:08:58.500Z,99568.66
2023-02-11T00:11:30.359Z,99566.09
2023-02-11T00:14:00.441Z,99563.53
2023-02-11T00:16:29.587Z,99559.25
2023-02-11T00:18:58.774Z,99562.81
2023-02-11T00:21:29.058Z,99561.13
2023-02-11T00:23:59.763Z,99560.31
2023-02-11T00:26:31.268Z,99563.91
2023-02-11T00:29:00.851Z,99566.53
2023-02-11T00:31:30.302Z,99564.00
2023-02-11T00:33:58.630Z,99571.88
2023-02-11T00:36:30.486Z,99574.50
2023-02-11T00:39:00.971Z,99573.69
2023-02-11T00:41:29.540Z,99564.22
2023-02-11T00:43:58.077Z,99574.66
2023-02-11T00:46:26.498Z,99572.13
2023-02-11T00:48:57.683Z,99569.59
2023-02-11T00:51:28.360Z,99574.88
2023-02-11T00:53:56.873Z,99576.66
2023-02-11T00:56:25.301Z,99572.38
2023-02-11T00:58:54.034Z,99571.50
2023-02-11T01:01:22.540Z,99575.84
2023-02-11T01:03:50.886Z,99568.97
2023-02-11T01:06:19.622Z,99565.50
2023-02-11T01:08:49.271Z,99564.69
2023-02-11T01:11:20.586Z,99566.47
2023-02-11T01:13:49.955Z,99567.41
2023-02-11T01:16:18.803Z,99565.72
2023-02-11T01:18:47.263Z,99561.38
2023-02-11T01:21:16.182Z,99557.97
2023-02-11T01:23:44.406Z,99555.34
2023-02-11T01:26:14.079Z,99556.22
2023-02-11T01:28:42.413Z,99553.69
2023-02-11T01:31:10.675Z,99558.97
2023-02-11T01:33:39.045Z,99554.66
2023-02-11T01:36:08.579Z,99549.47
2023-02-11T01:38:37.218Z,99549.50
2023-02-11T01:41:08.731Z,99538.31
2023-02-11T01:43:41.495Z,99536.63
2023-02-11T01:46:31.309Z,99541.91
2023-02-11T01:49:06.205Z,99533.25
2023-02-11T01:51:39.448Z,99533.25
2023-02-11T01:54:27.830Z,99528.06
2023-02-11T01:57:17.858Z,99534.19
2023-02-11T01:59:57.936Z,99525.56
2023-02-11T02:02:34.700Z,99520.38
2023-02-11T02:05:10.308Z,99522.97
2023-02-11T02:07:43.768Z,99506.50
2023-02-11T02:10:20.506Z,99500.41
2023-02-11T02:12:48.895Z,99489.19
2023-02-11T02:15:28.542Z,99486.59
2023-02-11T02:18:08.052Z,99494.41
2023-02-11T02:21:14.136Z,99499.66
2023-02-11T02:24:35.416Z,99492.78
2023-02-11T02:27:41.466Z,99477.28
2023-02-11T02:30:50.811Z,99478.22
2023-02-11T02:33:39.905Z,99473.03
2023-02-11T02:36:16.586Z,99476.56
2023-02-11T02:38:54.087Z,99470.50
2023-02-11T02:41:29.180Z,99475.69
2023-02-11T02:43:57.544Z,99465.31
2023-02-11T02:46:28.842Z,99466.16
2023-02-11T02:48:59.905Z,99469.59
2023-02-11T02:51:54.108Z,99467.94
2023-02-11T02:55:13.783Z,99473.22
2023-02-11T02:58:01.375Z,99473.25
2023-02-11T03:00:40.088Z,99474.16
2023-02-11T03:03:24.374Z,99468.94
2023-02-11T03:05:59.601Z,99468.94
2023-02-11T03:08:34.623Z,99469.84
2023-02-11T03:11:03.587Z,99468.97
2023-02-11T03:13:35.016Z,99469.84
2023-02-11T03:16:10.543Z,99462.06
2023-02-11T03:18:43.851Z,99476.00
2023-02-11T03:21:15.411Z,99471.69
2023-02-11T03:23:49.756Z,99469.97
2023-02-11T03:26:25.132Z,99461.38
2023-02-11T03:29:03.395Z,99477.00
2023-02-11T03:31:40.853Z,99477.00
2023-02-11T03:34:15.726Z,99481.41
2023-02-11T03:36:50.410Z,99484.88
2023-02-11T03:39:23.886Z,99480.59
2023-02-11T03:41:54.270Z,99482.28
2023-02-11T03:44:24.190Z,99471.00
2023-02-11T03:46:55.063Z,99465.84
2023-02-11T03:49:26.416Z,99470.22
2023-02-11T03:51:57.264Z,99469.38
2023-02-11T03:54:31.574Z,99465.03
2023-02-11T03:57:02.717Z,99464.22
2023-02-11T03:59:31.374Z,99461.56
2023-02-11T04:02:00.379Z,99456.34
2023-02-11T04:04:28.689Z,99467.59
2023-02-11T04:06:58.701Z,99478.88
2023-02-11T04:09:26.940Z,99488.41
2023-02-11T04:11:55.195Z,99491.91
2023-02-11T04:14:23.420Z,99495.34
2023-02-11T04:16:51.670Z,99487.53
2023-02-11T04:19:19.904Z,99493.56
2023-02-11T04:21:48.292Z,99503.16
2023-02-11T04:24:17.909Z,99497.09
2023-02-11T04:26:46.164Z,99491.88
2023-02-11T04:29:14.444Z,99491.00
2023-02-11T04:31:42.740Z,99482.38
2023-02-11T04:34:10.981Z,99477.16
2023-02-11T04:36:39.242Z,99470.25
2023-02-11T04:39:07.521Z,99475.38
2023-02-11T04:41:37.176Z,99472.78
2023-02-11T04:44:06.375Z,99458.88
2023-02-11T04:46:34.790Z,99459.69
2023-02-11T04:49:03.127Z,99452.75
2023-02-11T04:51:31.969Z,99457.09
2023-02-11T04:54:00.413Z,99450.19
2023-02-11T04:56:28.738Z,99444.03
2023-02-11T04:58:58.387Z,99438.84
2023-02-11T05:01:26.941Z,99439.75
2023-02-11T05:03:55.235Z,99441.38
2023-02-11T05:06:23.557Z,99439.63
2023-02-11T05:08:52.015Z,99436.13
2023-02-11T05:11:22.960Z,99436.09
2023-02-11T05:13:51.396Z,99432.63
2023-02-11T05:16:21.305Z,99440.41
2023-02-11T05:18:52.399Z,99447.28
2023-02-11T05:21:21.589Z,99437.75
2023-02-11T05:23:50.093Z,99444.72
2023-02-11T05:26:19.461Z,99451.56
2023-02-11T05:28:47.727Z,99437.69
2023-02-11T05:31:16.920Z,99445.47
2023-02-11T05:33:46.647Z,99440.19
2023-02-11T05:36:16.775Z,99437.59
2023-02-11T05:38:45.092Z,99428.88
2023-02-11T05:41:14.011Z,99420.13
2023-02-11T05:43:42.294Z,99428.81
2023-02-11T05:46:10.683Z,99422.69
2023-02-11T05:48:39.008Z,99437.44
2023-02-11T05:51:08.779Z,99453.88
2023-02-11T05:53:37.182Z,99452.97
2023-02-11T05:56:06.165Z,99440.03
2023-02-11T05:58:34.461Z,99441.69
2023-02-11T06:01:02.793Z,99433.81
2023-02-11T06:03:31.118Z,99438.97
2023-02-11T06:05:59.416Z,99434.59
2023-02-11T06:08:29.089Z,99450.19
2023-02-11T06:10:57.330Z,99431.97
2023-02-11T06:13:25.571Z,99425.88
2023-02-11T06:16:04.101Z,99424.09
2023-02-11T06:18:33.576Z,99431.00
2023-02-11T06:21:02.142Z,99429.22
2023-02-11T06:23:31.756Z,99424.88
2023-02-11T06:26:03.795Z,99421.31
2023-02-11T06:28:32.536Z,99417.81
2023-02-11T06:31:06.746Z,99408.25
2023-02-11T06:33:35.569Z,99422.06
2023-02-11T06:36:05.337Z,99410.75
2023-02-11T06:38:34.930Z,99420.25
2023-02-11T06:41:03.173Z,99421.94
2023-02-11T06:43:31.508Z,99421.03
2023-02-11T06:45:59.762Z,99416.75
2023-02-11T06:48:28.085Z,99422.69
2023-02-11T06:50:56.335Z,99420.03
2023-02-11T06:53:25.287Z,99412.13
2023-02-11T06:55:54.936Z,99407.72
2023-02-11T06:58:23.245Z,99420.69
2023-02-11T07:00:52.291Z,99418.91
2023-02-11T07:03:20.588Z,99417.97
2023-02-11T07:05:49.215Z,99401.47
2023-02-11T07:08:17.736Z,99415.28
2023-02-11T07:10:45.972Z,99420.41
2023-02-11T07:13:15.594Z,99434.31
2023-02-11T07:15:43.939Z,99428.13
2023-02-11T07:18:14.627Z,99416.78
2023-02-11T07:20:43.389Z,99415.00
2023-02-11T07:23:11.769Z,99413.19
2023-02-11T07:25:39.975Z,99418.28
2023-02-11T07:28:08.263Z,99419.94
2023-02-11T07:30:37.981Z,99425.91
2023-02-11T07:33:06.242Z,99429.25
2023-02-11T07:35:34.570Z,99420.44
2023-02-11T07:38:02.821Z,99422.00
2023-02-11T07:40:31.611Z,99414.16
2023-02-11T07:43:01.730Z,99410.38
2023-02-11T07:45:30.130Z,99402.38
2023-02-11T07:47:59.769Z,99411.00
2023-02-11T07:50:28.154Z,99411.59
2023-02-11T07:52:56.475Z,99414.09
2023-02-11T07:55:24.749Z,99407.03
2023-02-11T07:57:53.010Z,99403.34
2023-02-11T08:00:21.444Z,99385.75
2023-02-11T08:02:49.657Z,99385.66
2023-02-11T08:05:19.581Z,99389.88
2023-02-11T08:07:47.829Z,99404.50
2023-02-11T08:10:16.297Z,99405.22
2023-02-11T08:12:45.781Z,99413.84
2023-02-11T08:15:14.358Z,99416.28
2023-02-11T08:17:42.629Z,99426.56
2023-02-11T08:20:11.966Z,99429.00
2023-02-11T08:22:41.628Z,99440.16
2023-02-11T08:25:09.930Z,99440.81
2023-02-11T08:27:38.211Z,99437.97
2023-02-11T08:30:07.977Z,99447.38
2023-02-11T08:32:36.845Z,99442.78
2023-02-11T08:35:07.816Z,99442.59
2023-02-11T08:37:36.269Z,99441.53
2023-02-11T08:40:07.213Z,99452.59
2023-02-11T08:42:35.535Z,99448.88
2023-02-11T08:45:05.085Z,99444.28
2023-02-11T08:47:33.426Z,99442.34
2023-02-11T08:50:01.676Z,99429.06
2023-02-11T08:52:29.973Z,99439.25
2023-02-11T08:54:58.855Z,99427.66
2023-02-11T08:57:28.724Z,99417.00
2023-02-11T08:59:57.000Z,99405.53
2023-02-11T09:02:25.403Z,99425.13
2023-02-11T09:04:53.735Z,99419.63
2023-02-11T09:07:22.005Z,99418.28
2023-02-11T09:09:50.243Z,99423.94
2023-02-11T09:12:18.518Z,99417.38
2023-02-11T09:14:48.140Z,99418.69
2023-02-11T09:17:16.385Z,99426.97
2023-02-11T09:19:44.672Z,99418.88
2023-02-11T09:22:12.974Z,99415.00
2023-02-11T09:24:41.326Z,99412.97
2023-02-11T09:27:09.569Z,99417.06
2023-02-11T09:29:37.854Z,99416.72
2023-02-11T09:32:09.837Z,99405.94
2023-02-11T09:34:38.512Z,99410.06
2023-02-11T09:37:06.768Z,99428.97
2023-02-11T09:39:35.014Z,99419.94
2023-02-11T09:42:38.097Z,99411.81
2023-02-11T09:45:15.886Z,99400.16
2023-02-11T09:47:51.766Z,99401.59
2023-02-11T09:50:30.649Z,99414.31
2023-02-11T09:53:03.381Z,99418.44
2023-02-11T09:55:37.578Z,99409.38
2023-02-11T09:58:12.637Z,99403.13
2023-02-11T10:00:46.121Z,99403.59
2023-02-11T10:03:50.130Z,99412.38
2023-02-11T10:06:37.423Z,99404.53
2023-02-11T10:09:34.986Z,99394.91
2023-02-11T10:12:21.022Z,99390.50
2023-02-11T10:15:09.697Z,99389.97
2023-02-11T10:17:46.449Z,99391.41
2023-02-11T10:20:27.124Z,99383.31
2023-02-11T10:22:58.696Z,99375.41
2023-02-11T10:25:29.323Z,99378.38
2023-02-11T10:28:01.353Z,99374.34
2023-02-11T10:30:34.956Z,99377.44
2023-02-11T10:33:08.535Z,99373.72
2023-02-11T10:35:39.560Z,99381.53
2023-02-11T10:38:09.449Z,99375.25
2023-02-11T10:40:37.822Z,99381.22
2023-02-11T10:43:11.840Z,99383.78
2023-02-11T10:45:44.440Z,99378.50
2023-02-11T10:48:44.833Z,99371.53
2023-02-11T10:51:21.934Z,99360.94
2023-02-11T10:53:52.264Z,99363.66
2023-02-11T10:56:28.519Z,99365.34
2023-02-11T10:59:02.024Z,99361.84
2023-02-11T11:01:42.472Z,99360.94
2023-02-11T11:04:36.616Z,99347.75
2023-02-11T11:07:17.766Z,99348.75
2023-02-11T11:09:51.870Z,99350.56
2023-02-11T11:12:48.983Z,99355.75
2023-02-11T11:15:23.727Z,99354.00
2023-02-11T11:18:20.998Z,99347.84
2023-02-11T11:21:00.023Z,99339.94
2023-02-11T11:23:31.251Z,99334.59
2023-02-11T11:26:04.950Z,99330.94
2023-02-11T11:28:38.973Z,99325.66
2023-02-11T11:31:15.357Z,99329.06
2023-02-11T11:33:45.548Z,99318.53
2023-02-11T11:36:18.201Z,99295.91
2023-02-11T11:39:03.262Z,99293.19
2023-02-11T11:41:34.478Z,99288.78
2023-02-11T11:44:16.192Z,99275.53
2023-02-11T11:46:46.984Z,99274.59
2023-02-11T11:49:26.931Z,99274.41
2023-02-11T11:52:11.076Z,99279.59
2023-02-11T11:54:41.968Z,99285.56
2023-02-11T11:57:16.317Z,99272.16
2023-02-11T11:59:44.715Z,99266.72
2023-02-11T12:02:37.026Z,99279.47
2023-02-11T12:05:13.113Z,99280.06
2023-02-11T12:07:59.882Z,99290.34
2023-02-11T12:10:56.639Z,99297.09
2023-02-11T12:13:39.463Z,99283.56
2023-02-11T12:16:20.746Z,99277.19
2023-02-11T12:19:24.537Z,99267.28
2023-02-11T12:22:04.311Z,99284.66
2023-02-11T12:24:50.080Z,99276.59
2023-02-11T12:27:35.069Z,99279.78
2023-02-11T12:30:19.964Z,99275.13
2023-02-11T12:32:55.013Z,99263.53
2023-02-11T12:35:38.453Z,99261.53
2023-02-11T12:38:35.248Z,99255.13
2023-02-11T12:41:43.035Z,99246.97
2023-02-11T12:44:21.900Z,99257.34
2023-02-11T12:46:57.607Z,99255.28
2023-02-11T12:49:38.964Z,99255.13
2023-02-11T12:52:26.364Z,99244.28
2023-02-11T12:54:59.792Z,99242.38
2023-02-11T12:57:30.753Z,99237.63
2023-02-11T13:00:06.618Z,99233.19
2023-02-11T13:02:46.842Z,99220.47
2023-02-11T13:05:26.474Z,99228.88
2023-02-11T13:08:01.340Z,99214.66
2023-02-11T13:10:35.320Z,99218.66
2023-02-11T13:13:19.199Z,99227.28
2023-02-11T13:15:53.370Z,99222.59
2023-02-11T13:18:36.971Z,99215.25
2023-02-11T13:21:33.507Z,99220.34
2023-02-11T13:24:17.224Z,99230.72
2023-02-11T13:26:55.629Z,99225.25
2023-02-11T13:29:37.315Z,99221.50
2023-02-11T13:32:13.232Z,99224.78
2023-02-11T13:34:59.904Z,99235.16
2023-02-11T13:37:33.273Z,99239.34
2023-02-11T13:40:04.521Z,99230.38
2023-02-11T13:42:35.593Z,99227.44
2023-02-11T13:45:04.213Z,99231.56
2023-02-11T13:47:36.719Z,99230.56
2023-02-11T13:50:10.594Z,99235.75
2023-02-11T13:52:42.712Z,99224.13
2023-02-11T13:55:22.858Z,99214.31
2023-02-11T13:58:19.656Z,99213.28
2023-02-11T14:00:51.505Z,99214.88
2023-02-11T14:03:49.836Z,99213.91
2023-02-11T14:06:45.400Z,99217.31
2023-02-11T14:09:40.379Z,99217.22
2023-02-11T14:12:35.683Z,99213.63
2023-02-11T14:15:21.830Z,99221.47
2023-02-11T14:17:50.106Z,99214.09
2023-02-11T14:20:44.680Z,99218.34
2023-02-11T14:23:27.976Z,99200.50
2023-02-11T14:26:34.862Z,99205.78
2023-02-11T14:29:14.117Z,99203.16
2023-02-11T14:31:50.607Z,99203.06
2023-02-11T14:34:47.428Z,99205.50
2023-02-11T14:37:32.564Z,99202.75
2023-02-11T14:40:16.308Z,99210.50
2023-02-11T14:42:44.886Z,99205.97
2023-02-11T14:45:21.585Z,99209.25
2023-02-11T14:47:56.291Z,99207.38
2023-02-11T14:50:28.583Z,99198.28
2023-02-11T14:53:02.330Z,99193.94
2023-02-11T14:55:37.079Z,99198.97
2023-02-11T14:58:14.630Z,99200.75
2023-02-11T15:00:52.362Z,99204.06
2023-02-11T15:03:34.350Z,99209.34
2023-02-11T15:06:07.444Z,99213.59
2023-02-11T15:08:43.937Z,99207.44
2023-02-11T15:11:15.513Z,99207.25
2023-02-11T15:13:48.128Z,99195.84
2023-02-11T15:16:20.732Z,99204.69
2023-02-11T15:18:53.212Z,99203.09
2023-02-11T15:21:24.303Z,99204.25
2023-02-11T15:24:07.046Z,99203.50
2023-02-11T15:26:35.596Z,99203.56
2023-02-11T15:29:04.932Z,99204.53
2023-02-11T15:31:35.093Z,99203.75
2023-02-11T15:34:09.701Z,99188.19
2023-02-11T15:36:39.778Z,99199.72
2023-02-11T15:39:21.337Z,99200.88
2023-02-11T15:41:49.572Z,99205.31
2023-02-11T15:44:32.961Z,99203.72
2023-02-11T15:47:01.552Z,99199.34
2023-02-11T15:49:29.868Z,99207.38
2023-02-11T15:51:59.065Z,99217.94
2023-02-11T15:54:32.085Z,99218.91
2023-02-11T15:57:06.401Z,99212.03
2023-02-11T15:59:39.184Z,99220.88
2023-02-11T16:02:14.504Z,99227.22
2023-02-11T16:04:51.446Z,99236.22
2023-02-11T16:07:42.866Z,99247.78
2023-02-11T16:10:29.067Z,99250.00
2023-02-11T16:13:17.714Z,99257.25
2023-02-11T16:15:51.144Z,99259.25
2023-02-11T16:18:39.865Z,99265.66
2023-02-11T16:21:16.865Z,99261.41
2023-02-11T16:23:52.805Z,99264.13
2023-02-11T16:26:31.616Z,99263.38
2023-02-11T16:29:14.302Z,99257.44
2023-02-11T16:31:45.150Z,99249.72
2023-02-11T16:34:17.082Z,99263.84
2023-02-11T16:36:47.138Z,99256.19
2023-02-11T16:39:16.774Z,99267.91
2023-02-11T16:41:46.378Z,99262.88
2023-02-11T16:44:14.906Z,99271.84
2023-02-11T16:46:43.339Z,99282.50
2023-02-11T16:49:17.463Z,99288.81
2023-02-11T16:51:48.950Z,99292.50
2023-02-11T16:54:19.251Z,99296.16
2023-02-11T16:56:49.105Z,99290.13
2023-02-11T16:59:17.526Z,99295.41
2023-02-11T17:01:47.153Z,99291.06
2023-02-11T17:04:20.443Z,99289.38
2023-02-11T17:06:49.217Z,99277.97
2023-02-11T17:09:21.657Z,99281.56
2023-02-11T17:11:52.064Z,99284.28
2023-02-11T17:14:21.248Z,99285.97
2023-02-11T17:16:50.064Z,99284.28
2023-02-11T17:19:21.836Z,99293.97
2023-02-11T17:21:52.042Z,99288.78
2023-02-11T17:24:21.356Z,99295.84
2023-02-11T17:26:51.822Z,99303.88
2023-02-11T17:29:23.865Z,99299.63
2023-02-11T17:31:53.337Z,99303.22
2023-02-11T17:34:22.908Z,99300.66
2023-02-11T17:36:51.837Z,99303.41
2023-02-11T17:39:21.190Z,99300.75
2023-02-11T17:41:50.989Z,99288.56
2023-02-11T17:44:19.455Z,99301.75
2023-02-11T17:46:47.769Z,99296.56
2023-02-11T17:49:16.367Z,99304.56
2023-02-11T17:51:44.972Z,99298.47
2023-02-11T17:54:15.336Z,99306.47
2023-02-11T17:56:43.983Z,99301.28
2023-02-11T17:59:15.090Z,99299.56
2023-02-11T18:01:44.524Z,99301.38
2023-02-11T18:04:17.237Z,99304.09
2023-02-11T18:06:46.436Z,99310.28
2023-02-11T18:09:14.725Z,99313.88
2023-02-11T18:11:43.340Z,99312.19
2023-02-11T18:14:13.526Z,99311.41
2023-02-11T18:16:44.788Z,99313.19
2023-02-11T18:19:13.967Z,99308.09
2023-02-11T18:21:42.513Z,99313.47
2023-02-11T18:24:11.575Z,99317.06
2023-02-11T18:26:39.792Z,99316.28
2023-02-11T18:29:08.095Z,99326.09
2023-02-11T18:31:37.864Z,99324.38
2023-02-11T18:34:08.479Z,99321.81
2023-02-11T18:36:37.583Z,99321.94
2023-02-11T18:39:06.313Z,99316.84
2023-02-11T18:41:34.750Z,99316.84
2023-02-11T18:44:04.576Z,99323.88
2023-02-11T18:46:32.907Z,99335.38
2023-02-11T18:49:02.611Z,99343.31
2023-02-11T18:51:32.394Z,99333.09
2023-02-11T18:54:01.313Z,99337.34
2023-02-11T18:56:29.693Z,99338.28
2023-02-11T18:59:01.241Z,99338.38
2023-02-11T19:01:31.867Z,99336.66
2023-02-11T19:04:04.454Z,99335.91
2023-02-11T19:06:35.406Z,99343.03
2023-02-11T19:09:07.396Z,99353.69
2023-02-11T19:11:50.030Z,99350.19
2023-02-11T19:14:22.332Z,99338.88
2023-02-11T19:16:52.939Z,99346.00
2023-02-11T19:19:23.552Z,99354.75
2023-02-11T19:21:51.874Z,99356.53
2023-02-11T19:24:20.821Z,99361.91
2023-02-11T19:26:51.685Z,99360.22
2023-02-11T19:29:20.394Z,99361.97
2023-02-11T19:31:48.848Z,99364.72
2023-02-11T19:34:20.496Z,99374.31
2023-02-11T19:36:50.988Z,99370.84
2023-02-11T19:39:19.558Z,99375.25
2023-02-11T19:41:47.838Z,99376.94
2023-02-11T19:44:16.722Z,99369.97
2023-02-11T19:46:46.047Z,99363.84
2023-02-11T19:49:17.593Z,99372.69
2023-02-11T19:51:45.932Z,99364.97
2023-02-11T19:54:15.520Z,99371.00
2023-02-11T19:56:44.818Z,99375.41
2023-02-11T19:59:13.250Z,99373.72
2023-02-11T20:01:42.379Z,99374.56
2023-02-11T20:04:10.727Z,99381.66
2023-02-11T20:06:38.954Z,99378.16
2023-02-11T20:09:12.387Z,99377.28
2023-02-11T20:11:42.999Z,99369.47
2023-02-11T20:14:14.842Z,99366.00
2023-02-11T20:16:49.236Z,99362.50
2023-02-11T20:19:19.515Z,99350.25
2023-02-11T20:21:50.234Z,99358.25
2023-02-11T20:24:20.025Z,99361.78
2023-02-11T20:26:51.682Z,99363.59
2023-02-11T20:29:20.584Z,99366.16
2023-02-11T20:31:50.619Z,99357.38
2023-02-11T20:34:19.380Z,99357.22
2023-02-11T20:36:52.112Z,99362.41
2023-02-11T20:39:22.737Z,99360.72
2023-02-11T20:41:53.847Z,99359.84
2023-02-11T20:44:22.887Z,99363.34
2023-02-11T20:46:53.813Z,99360.72
2023-02-11T20:49:25.348Z,99364.25
2023-02-11T20:51:54.451Z,99361.63
2023-02-11T20:54:24.195Z,99366.06
2023-02-11T20:56:56.761Z,99373.03
2023-02-11T20:59:25.676Z,99367.84
2023-02-11T21:01:56.728Z,99378.31
2023-02-11T21:04:27.313Z,99376.63
2023-02-11T21:06:58.217Z,99379.34
2023-02-11T21:09:30.287Z,99381.03
2023-02-11T21:12:00.215Z,99374.91
2023-02-11T21:14:28.981Z,99367.06
2023-02-11T21:16:57.632Z,99373.38
2023-02-11T21:19:25.957Z,99375.84
2023-02-11T21:21:55.137Z,99366.25
2023-02-11T21:24:23.734Z,99374.06
2023-02-11T21:26:52.012Z,99374.06
2023-02-11T21:29:21.652Z,99390.72
2023-02-11T21:31:51.335Z,99382.88
2023-02-11T21:34:20.810Z,99383.75
2023-02-11T21:36:51.127Z,99377.63
2023-02-11T21:39:20.217Z,99369.78
2023-02-11T21:41:48.513Z,99380.25
2023-02-11T21:44:16.912Z,99376.88
2023-02-11T21:46:46.601Z,99388.34
2023-02-11T21:49:15.001Z,99398.88
2023-02-11T21:51:43.607Z,99396.16
2023-02-11T21:54:12.774Z,99404.06
2023-02-11T21:56:41.055Z,99401.44
2023-02-11T21:59:11.794Z,99395.25
2023-02-11T22:01:40.064Z,99402.13
2023-02-11T22:04:10.835Z,99406.47
2023-02-11T22:06:39.804Z,99401.97
2023-02-11T22:09:10.819Z,99408.09
2023-02-11T22:11:40.147Z,99406.22
2023-02-11T22:14:08.764Z,99402.75
2023-02-11T22:16:37.322Z,99394.75
2023-02-11T22:19:07.528Z,99405.38
2023-02-11T22:21:37.251Z,99408.09
2023-02-11T22:24:06.378Z,99415.16
2023-02-11T22:26:34.695Z,99412.50
2023-02-11T22:29:02.995Z,99413.38
2023-02-11T22:31:34.666Z,99411.66
2023-02-11T22:34:04.858Z,99422.19
2023-02-11T22:36:36.822Z,99412.59
2023-02-11T22:39:08.189Z,99423.16
2023-02-11T22:41:38.277Z,99416.09
2023-02-11T22:44:06.615Z,99416.19
2023-02-11T22:46:35.803Z,99417.09
2023-02-11T22:49:04.600Z,99425.94
2023-02-11T22:51:33.671Z,99420.75
2023-02-11T22:54:05.858Z,99411.16
2023-02-11T22:56:35.829Z,99411.91
2023-02-11T22:59:07.249Z,99411.06
2023-02-11T23:01:36.052Z,99406.63
2023-02-11T23:04:07.029Z,99407.56
2023-02-11T23:06:35.790Z,99420.66
2023-02-11T23:09:06.888Z,99421.63
2023-02-11T23:11:35.999Z,99418.03
2023-02-11T23:14:05.192Z,99418.97
2023-02-11T23:16:35.301Z,99414.63
2023-02-11T23:19:07.624Z,99419.88
2023-02-11T23:21:39.502Z,99416.41
2023-02-11T23:24:13.193Z,99420.84
2023-02-11T23:26:42.817Z,99429.69
2023-02-11T23:29:12.391Z,99435.88
2023-02-11T23:31:45.980Z,99442.88
2023-02-11T23:34:17.187Z,99435.88
2023-02-11T23:36:45.535Z,99424.50
2023-02-11T23:39:17.166Z,99422.78
2023-02-11T23:41:46.643Z,99420.13
2023-02-11T23:44:15.012Z,99432.56
2023-02-11T23:46:43.289Z,99430.75
2023-02-11T23:49:11.652Z,99432.56
2023-02-11T23:51:39.966Z,99439.53
2023-02-11T23:54:08.193Z,99439.53
2023-02-11T23:56:39.018Z,99440.41
2023-02-11T23:59:07.329Z,99443.03
